Duck Creek, Indiana
Current Conditions -  °F | °C
As of 4:15 PM on Saturday 25 Oct 2014 (Local Time) from KMZZ Reporting Station
Clear Clear  
Wind Chill: 69°   Ceiling: Unl
Heat Index: 69°   Visibility: 10mi
Dew Point: 48°   Wind: 18mph
Humidity: 47%   Direction: 290°WNW
Pressure: 29.92"   Gusts: NA
Location:  40.3067°N, 85.834°W
Report Text: KMZZ 252015Z AUTO 29016KT 10SM CLR 21/09 A2992 RMK AO2 T02070090
Loading
Personal Weather Stations






























Interactive Weather Map
Tropical Storm Tracking
New forecast layout! Learn more

10-Day Weather Forecast

Advertisements
Track Severe Weather on mobile